sensor_id;sensor_type;location;lat;lon;timestamp;P1;durP1;ratioP1;P2;durP2;ratioP2
75236;SDS011;63826;48.100;-1.670;2022-12-18T00:00:02;11.43;;;6.28;;
75236;SDS011;63826;48.100;-1.670;2022-12-18T00:02:28;11.18;;;5.95;;
75236;SDS011;63826;48.100;-1.670;2022-12-18T00:04:54;10.30;;;5.93;;
75236;SDS011;63826;48.100;-1.670;2022-12-18T00:07:20;10.83;;;5.90;;
75236;SDS011;63826;48.100;-1.670;2022-12-18T00:09:46;10.02;;;5.75;;
75236;SDS011;63826;48.100;-1.670;2022-12-18T00:12:12;10.38;;;5.80;;
75236;SDS011;63826;48.100;-1.670;2022-12-18T00:14:38;10.07;;;5.70;;
75236;SDS011;63826;48.100;-1.670;2022-12-18T00:17:04;10.07;;;5.97;;
75236;SDS011;63826;48.100;-1.670;2022-12-18T00:19:30;10.18;;;5.20;;
75236;SDS011;63826;48.100;-1.670;2022-12-18T00:21:56;9.80;;;5.30;;
75236;SDS011;63826;48.100;-1.670;2022-12-18T00:24:23;10.45;;;5.55;;
75236;SDS011;63826;48.100;-1.670;2022-12-18T00:26:49;10.52;;;5.50;;
75236;SDS011;63826;48.100;-1.670;2022-12-18T00:29:15;10.10;;;5.50;;
75236;SDS011;63826;48.100;-1.670;2022-12-18T00:31:41;9.95;;;5.28;;
75236;SDS011;63826;48.100;-1.670;2022-12-18T00:34:09;10.20;;;5.80;;
75236;SDS011;63826;48.100;-1.670;2022-12-18T00:36:36;10.25;;;6.03;;
75236;SDS011;63826;48.100;-1.670;2022-12-18T00:39:03;9.70;;;5.30;;
75236;SDS011;63826;48.100;-1.670;2022-12-18T00:41:29;9.57;;;5.10;;
75236;SDS011;63826;48.100;-1.670;2022-12-18T00:44:15;10.05;;;5.63;;
75236;SDS011;63826;48.100;-1.670;2022-12-18T00:46:41;10.75;;;5.95;;
75236;SDS011;63826;48.100;-1.670;2022-12-18T00:49:08;9.85;;;5.40;;
75236;SDS011;63826;48.100;-1.670;2022-12-18T00:51:34;9.70;;;5.35;;
75236;SDS011;63826;48.100;-1.670;2022-12-18T00:54:00;10.50;;;5.40;;
75236;SDS011;63826;48.100;-1.670;2022-12-18T00:56:26;8.52;;;4.78;;
75236;SDS011;63826;48.100;-1.670;2022-12-18T00:58:52;10.10;;;5.63;;
75236;SDS011;63826;48.100;-1.670;2022-12-18T01:01:18;8.93;;;5.43;;
75236;SDS011;63826;48.100;-1.670;2022-12-18T01:03:44;10.27;;;5.20;;
75236;SDS011;63826;48.100;-1.670;2022-12-18T01:06:12;9.82;;;5.63;;
75236;SDS011;63826;48.100;-1.670;2022-12-18T01:08:38;10.75;;;5.75;;
75236;SDS011;63826;48.100;-1.670;2022-12-18T01:11:08;9.30;;;5.40;;
75236;SDS011;63826;48.100;-1.670;2022-12-18T01:13:34;10.25;;;5.82;;
75236;SDS011;63826;48.100;-1.670;2022-12-18T01:16:00;10.25;;;5.35;;
75236;SDS011;63826;48.100;-1.670;2022-12-18T01:18:26;9.20;;;5.15;;
75236;SDS011;63826;48.100;-1.670;2022-12-18T01:20:52;9.50;;;5.00;;
75236;SDS011;63826;48.100;-1.670;2022-12-18T01:23:18;9.18;;;5.05;;
75236;SDS011;63826;48.100;-1.670;2022-12-18T01:25:44;10.15;;;5.75;;
75236;SDS011;63826;48.100;-1.670;2022-12-18T01:28:10;9.57;;;5.33;;
75236;SDS011;63826;48.100;-1.670;2022-12-18T01:30:36;9.68;;;5.60;;
75236;SDS011;63826;48.100;-1.670;2022-12-18T01:33:04;9.63;;;5.47;;
75236;SDS011;63826;48.100;-1.670;2022-12-18T01:35:30;10.20;;;4.90;;
75236;SDS011;63826;48.100;-1.670;2022-12-18T01:37:56;9.63;;;5.18;;
75236;SDS011;63826;48.100;-1.670;2022-12-18T01:40:22;9.35;;;4.82;;
75236;SDS011;63826;48.100;-1.670;2022-12-18T01:42:51;10.30;;;5.60;;
75236;SDS011;63826;48.100;-1.670;2022-12-18T01:47:45;9.98;;;5.20;;
75236;SDS011;63826;48.100;-1.670;2022-12-18T01:52:51;9.20;;;5.35;;
75236;SDS011;63826;48.100;-1.670;2022-12-18T01:55:19;9.68;;;5.57;;
75236;SDS011;63826;48.100;-1.670;2022-12-18T01:57:46;10.25;;;5.38;;
75236;SDS011;63826;48.100;-1.670;2022-12-18T02:00:15;11.32;;;5.30;;
75236;SDS011;63826;48.100;-1.670;2022-12-18T02:02:41;9.80;;;5.23;;
75236;SDS011;63826;48.100;-1.670;2022-12-18T02:05:09;9.20;;;5.25;;
75236;SDS011;63826;48.100;-1.670;2022-12-18T02:12:34;9.13;;;4.97;;
75236;SDS011;63826;48.100;-1.670;2022-12-18T02:27:46;8.75;;;5.03;;
75236;SDS011;63826;48.100;-1.670;2022-12-18T02:30:12;10.13;;;5.28;;
75236;SDS011;63826;48.100;-1.670;2022-12-18T02:32:40;9.45;;;5.22;;
75236;SDS011;63826;48.100;-1.670;2022-12-18T02:35:07;9.93;;;5.20;;
75236;SDS011;63826;48.100;-1.670;2022-12-18T02:37:34;10.38;;;5.57;;
75236;SDS011;63826;48.100;-1.670;2022-12-18T02:40:00;9.63;;;5.07;;
75236;SDS011;63826;48.100;-1.670;2022-12-18T02:42:27;8.60;;;4.97;;
75236;SDS011;63826;48.100;-1.670;2022-12-18T02:44:54;9.85;;;5.25;;
75236;SDS011;63826;48.100;-1.670;2022-12-18T02:47:22;10.37;;;5.67;;
75236;SDS011;63826;48.100;-1.670;2022-12-18T02:49:51;9.52;;;5.30;;
75236;SDS011;63826;48.100;-1.670;2022-12-18T02:58:26;9.52;;;5.45;;
75236;SDS011;63826;48.100;-1.670;2022-12-18T03:00:28;9.87;;;5.23;;
75236;SDS011;63826;48.100;-1.670;2022-12-18T03:02:59;9.60;;;5.22;;
75236;SDS011;63826;48.100;-1.670;2022-12-18T03:05:32;9.75;;;5.20;;
75236;SDS011;63826;48.100;-1.670;2022-12-18T03:08:01;10.00;;;5.35;;
75236;SDS011;63826;48.100;-1.670;2022-12-18T03:10:29;10.00;;;5.50;;
75236;SDS011;63826;48.100;-1.670;2022-12-18T03:13:06;9.60;;;5.00;;
75236;SDS011;63826;48.100;-1.670;2022-12-18T03:15:37;8.80;;;4.82;;
75236;SDS011;63826;48.100;-1.670;2022-12-18T03:18:06;10.23;;;5.45;;
75236;SDS011;63826;48.100;-1.670;2022-12-18T03:20:34;9.25;;;5.45;;
75236;SDS011;63826;48.100;-1.670;2022-12-18T03:23:08;10.55;;;5.82;;
75236;SDS011;63826;48.100;-1.670;2022-12-18T03:25:35;9.13;;;5.03;;
75236;SDS011;63826;48.100;-1.670;2022-12-18T03:28:04;9.70;;;5.40;;
75236;SDS011;63826;48.100;-1.670;2022-12-18T03:30:33;9.93;;;5.30;;
75236;SDS011;63826;48.100;-1.670;2022-12-18T03:33:08;9.60;;;5.40;;
75236;SDS011;63826;48.100;-1.670;2022-12-18T03:35:36;10.48;;;5.38;;
75236;SDS011;63826;48.100;-1.670;2022-12-18T03:38:04;9.17;;;4.83;;
75236;SDS011;63826;48.100;-1.670;2022-12-18T03:40:41;9.45;;;5.47;;
75236;SDS011;63826;48.100;-1.670;2022-12-18T03:43:10;10.27;;;5.88;;
75236;SDS011;63826;48.100;-1.670;2022-12-18T03:45:38;10.23;;;5.47;;
75236;SDS011;63826;48.100;-1.670;2022-12-18T03:50:43;10.10;;;5.23;;
75236;SDS011;63826;48.100;-1.670;2022-12-18T03:55:40;9.57;;;5.40;;
75236;SDS011;63826;48.100;-1.670;2022-12-18T03:58:07;9.90;;;5.32;;
75236;SDS011;63826;48.100;-1.670;2022-12-18T04:00:34;9.93;;;5.50;;
75236;SDS011;63826;48.100;-1.670;2022-12-18T04:03:00;9.77;;;5.30;;
75236;SDS011;63826;48.100;-1.670;2022-12-18T04:05:27;10.10;;;5.00;;
75236;SDS011;63826;48.100;-1.670;2022-12-18T04:07:54;10.60;;;5.68;;
75236;SDS011;63826;48.100;-1.670;2022-12-18T04:10:20;10.07;;;5.72;;
75236;SDS011;63826;48.100;-1.670;2022-12-18T04:12:46;10.02;;;5.57;;
75236;SDS011;63826;48.100;-1.670;2022-12-18T04:15:12;9.50;;;5.30;;
75236;SDS011;63826;48.100;-1.670;2022-12-18T04:17:39;10.50;;;5.07;;
75236;SDS011;63826;48.100;-1.670;2022-12-18T04:20:09;10.38;;;5.50;;
75236;SDS011;63826;48.100;-1.670;2022-12-18T04:22:35;10.32;;;5.55;;
75236;SDS011;63826;48.100;-1.670;2022-12-18T04:25:01;9.93;;;5.40;;
75236;SDS011;63826;48.100;-1.670;2022-12-18T04:27:27;9.87;;;5.40;;
75236;SDS011;63826;48.100;-1.670;2022-12-18T04:29:54;9.82;;;5.03;;
75236;SDS011;63826;48.100;-1.670;2022-12-18T04:32:20;9.52;;;5.22;;
75236;SDS011;63826;48.100;-1.670;2022-12-18T04:34:46;10.05;;;5.18;;
75236;SDS011;63826;48.100;-1.670;2022-12-18T04:37:12;9.88;;;5.22;;
75236;SDS011;63826;48.100;-1.670;2022-12-18T04:39:38;9.23;;;5.07;;
75236;SDS011;63826;48.100;-1.670;2022-12-18T04:42:04;10.40;;;5.20;;
75236;SDS011;63826;48.100;-1.670;2022-12-18T04:44:30;9.38;;;5.40;;
75236;SDS011;63826;48.100;-1.670;2022-12-18T04:46:56;9.65;;;5.22;;
75236;SDS011;63826;48.100;-1.670;2022-12-18T04:49:22;8.57;;;5.00;;
75236;SDS011;63826;48.100;-1.670;2022-12-18T04:51:48;9.40;;;5.45;;
75236;SDS011;63826;48.100;-1.670;2022-12-18T04:54:14;9.95;;;5.32;;
75236;SDS011;63826;48.100;-1.670;2022-12-18T04:56:40;9.80;;;5.60;;
75236;SDS011;63826;48.100;-1.670;2022-12-18T04:59:06;9.63;;;4.93;;
75236;SDS011;63826;48.100;-1.670;2022-12-18T05:01:32;10.48;;;5.53;;
75236;SDS011;63826;48.100;-1.670;2022-12-18T05:03:58;9.65;;;5.45;;
75236;SDS011;63826;48.100;-1.670;2022-12-18T05:06:24;9.35;;;5.20;;
75236;SDS011;63826;48.100;-1.670;2022-12-18T05:08:50;9.73;;;4.97;;
75236;SDS011;63826;48.100;-1.670;2022-12-18T05:11:16;9.98;;;5.20;;
75236;SDS011;63826;48.100;-1.670;2022-12-18T05:13:43;9.80;;;5.55;;
75236;SDS011;63826;48.100;-1.670;2022-12-18T05:16:09;10.30;;;5.63;;
75236;SDS011;63826;48.100;-1.670;2022-12-18T05:18:35;9.23;;;5.30;;
75236;SDS011;63826;48.100;-1.670;2022-12-18T05:21:01;10.63;;;5.80;;
75236;SDS011;63826;48.100;-1.670;2022-12-18T05:23:27;8.65;;;4.97;;
75236;SDS011;63826;48.100;-1.670;2022-12-18T05:25:54;9.80;;;5.15;;
75236;SDS011;63826;48.100;-1.670;2022-12-18T05:28:21;9.43;;;5.13;;
75236;SDS011;63826;48.100;-1.670;2022-12-18T05:30:50;9.43;;;5.07;;
75236;SDS011;63826;48.100;-1.670;2022-12-18T05:33:17;9.60;;;5.28;;
75236;SDS011;63826;48.100;-1.670;2022-12-18T05:35:43;8.82;;;4.93;;
75236;SDS011;63826;48.100;-1.670;2022-12-18T05:38:09;9.75;;;5.50;;
75236;SDS011;63826;48.100;-1.670;2022-12-18T05:40:35;9.95;;;5.13;;
75236;SDS011;63826;48.100;-1.670;2022-12-18T05:43:01;8.55;;;4.50;;
75236;SDS011;63826;48.100;-1.670;2022-12-18T05:45:27;9.52;;;5.35;;
75236;SDS011;63826;48.100;-1.670;2022-12-18T05:47:53;8.88;;;4.82;;
75236;SDS011;63826;48.100;-1.670;2022-12-18T05:50:19;10.05;;;5.38;;
75236;SDS011;63826;48.100;-1.670;2022-12-18T05:52:45;9.57;;;5.22;;
75236;SDS011;63826;48.100;-1.670;2022-12-18T05:55:11;9.88;;;5.10;;
75236;SDS011;63826;48.100;-1.670;2022-12-18T05:57:37;9.30;;;4.97;;
75236;SDS011;63826;48.100;-1.670;2022-12-18T06:00:03;9.48;;;5.35;;
75236;SDS011;63826;48.100;-1.670;2022-12-18T06:02:30;8.77;;;4.93;;
75236;SDS011;63826;48.100;-1.670;2022-12-18T06:04:56;9.40;;;4.95;;
75236;SDS011;63826;48.100;-1.670;2022-12-18T06:07:21;12.02;;;5.45;;
75236;SDS011;63826;48.100;-1.670;2022-12-18T06:09:48;9.18;;;4.88;;
75236;SDS011;63826;48.100;-1.670;2022-12-18T06:12:14;10.07;;;5.07;;
75236;SDS011;63826;48.100;-1.670;2022-12-18T06:14:39;9.30;;;5.43;;
75236;SDS011;63826;48.100;-1.670;2022-12-18T06:17:06;10.37;;;5.03;;
75236;SDS011;63826;48.100;-1.670;2022-12-18T06:19:32;9.75;;;5.10;;
75236;SDS011;63826;48.100;-1.670;2022-12-18T06:21:58;9.38;;;5.05;;
75236;SDS011;63826;48.100;-1.670;2022-12-18T06:24:24;9.35;;;5.07;;
75236;SDS011;63826;48.100;-1.670;2022-12-18T06:26:50;9.47;;;5.33;;
75236;SDS011;63826;48.100;-1.670;2022-12-18T06:29:16;10.10;;;5.22;;
75236;SDS011;63826;48.100;-1.670;2022-12-18T06:31:42;9.85;;;5.20;;
75236;SDS011;63826;48.100;-1.670;2022-12-18T06:34:08;9.05;;;4.60;;
75236;SDS011;63826;48.100;-1.670;2022-12-18T06:36:34;10.53;;;5.27;;
75236;SDS011;63826;48.100;-1.670;2022-12-18T06:39:00;9.80;;;5.50;;
75236;SDS011;63826;48.100;-1.670;2022-12-18T06:41:26;9.55;;;5.18;;
75236;SDS011;63826;48.100;-1.670;2022-12-18T06:43:52;9.57;;;5.05;;
75236;SDS011;63826;48.100;-1.670;2022-12-18T06:46:18;10.02;;;5.38;;
75236;SDS011;63826;48.100;-1.670;2022-12-18T06:48:47;9.43;;;5.10;;
75236;SDS011;63826;48.100;-1.670;2022-12-18T06:51:18;9.65;;;5.13;;
75236;SDS011;63826;48.100;-1.670;2022-12-18T06:53:44;9.35;;;4.88;;
75236;SDS011;63826;48.100;-1.670;2022-12-18T06:56:10;9.43;;;5.03;;
75236;SDS011;63826;48.100;-1.670;2022-12-18T06:58:36;8.85;;;5.18;;
75236;SDS011;63826;48.100;-1.670;2022-12-18T07:01:03;9.77;;;5.03;;
75236;SDS011;63826;48.100;-1.670;2022-12-18T07:03:30;10.73;;;5.30;;
75236;SDS011;63826;48.100;-1.670;2022-12-18T07:05:56;9.73;;;5.05;;
75236;SDS011;63826;48.100;-1.670;2022-12-18T07:08:22;9.27;;;5.35;;
75236;SDS011;63826;48.100;-1.670;2022-12-18T07:10:48;8.88;;;4.85;;
75236;SDS011;63826;48.100;-1.670;2022-12-18T07:13:15;8.70;;;4.70;;
75236;SDS011;63826;48.100;-1.670;2022-12-18T07:15:41;10.25;;;4.97;;
75236;SDS011;63826;48.100;-1.670;2022-12-18T07:18:07;8.80;;;4.95;;
75236;SDS011;63826;48.100;-1.670;2022-12-18T07:20:33;10.07;;;5.35;;
75236;SDS011;63826;48.100;-1.670;2022-12-18T07:22:59;9.93;;;5.43;;
75236;SDS011;63826;48.100;-1.670;2022-12-18T07:25:27;9.52;;;5.15;;
75236;SDS011;63826;48.100;-1.670;2022-12-18T07:27:53;9.05;;;4.70;;
75236;SDS011;63826;48.100;-1.670;2022-12-18T07:30:19;9.98;;;5.20;;
75236;SDS011;63826;48.100;-1.670;2022-12-18T07:32:45;9.48;;;5.03;;
75236;SDS011;63826;48.100;-1.670;2022-12-18T07:35:11;9.25;;;4.90;;
75236;SDS011;63826;48.100;-1.670;2022-12-18T07:37:37;9.57;;;4.90;;
75236;SDS011;63826;48.100;-1.670;2022-12-18T07:40:03;8.38;;;4.57;;
75236;SDS011;63826;48.100;-1.670;2022-12-18T07:42:30;8.60;;;4.50;;
75236;SDS011;63826;48.100;-1.670;2022-12-18T07:44:56;8.30;;;4.50;;
75236;SDS011;63826;48.100;-1.670;2022-12-18T07:47:22;9.15;;;5.30;;
75236;SDS011;63826;48.100;-1.670;2022-12-18T07:49:48;9.40;;;5.00;;
75236;SDS011;63826;48.100;-1.670;2022-12-18T07:52:14;8.45;;;4.68;;
75236;SDS011;63826;48.100;-1.670;2022-12-18T07:54:40;9.45;;;4.90;;
75236;SDS011;63826;48.100;-1.670;2022-12-18T07:57:06;9.43;;;4.70;;
75236;SDS011;63826;48.100;-1.670;2022-12-18T07:59:32;8.48;;;4.38;;
75236;SDS011;63826;48.100;-1.670;2022-12-18T08:01:58;10.57;;;5.13;;
75236;SDS011;63826;48.100;-1.670;2022-12-18T08:04:25;9.00;;;4.90;;
75236;SDS011;63826;48.100;-1.670;2022-12-18T08:06:51;9.70;;;4.87;;
75236;SDS011;63826;48.100;-1.670;2022-12-18T08:09:17;8.63;;;4.55;;
75236;SDS011;63826;48.100;-1.670;2022-12-18T08:11:43;9.13;;;4.82;;
75236;SDS011;63826;48.100;-1.670;2022-12-18T08:14:09;9.13;;;4.50;;
75236;SDS011;63826;48.100;-1.670;2022-12-18T08:16:35;9.68;;;5.05;;
75236;SDS011;63826;48.100;-1.670;2022-12-18T08:19:01;9.98;;;5.00;;
75236;SDS011;63826;48.100;-1.670;2022-12-18T08:21:28;8.80;;;4.78;;
75236;SDS011;63826;48.100;-1.670;2022-12-18T08:23:55;8.05;;;4.22;;
75236;SDS011;63826;48.100;-1.670;2022-12-18T08:26:22;9.88;;;4.93;;
75236;SDS011;63826;48.100;-1.670;2022-12-18T08:28:48;8.90;;;4.90;;
75236;SDS011;63826;48.100;-1.670;2022-12-18T08:31:14;9.15;;;4.90;;
75236;SDS011;63826;48.100;-1.670;2022-12-18T08:33:40;9.68;;;4.80;;
75236;SDS011;63826;48.100;-1.670;2022-12-18T08:36:07;8.70;;;4.50;;
75236;SDS011;63826;48.100;-1.670;2022-12-18T08:38:34;9.15;;;4.70;;
75236;SDS011;63826;48.100;-1.670;2022-12-18T08:41:04;8.17;;;4.43;;
75236;SDS011;63826;48.100;-1.670;2022-12-18T08:43:30;8.77;;;4.88;;
75236;SDS011;63826;48.100;-1.670;2022-12-18T08:46:15;8.73;;;4.40;;
75236;SDS011;63826;48.100;-1.670;2022-12-18T08:48:42;9.18;;;4.65;;
75236;SDS011;63826;48.100;-1.670;2022-12-18T08:51:08;9.07;;;4.30;;
75236;SDS011;63826;48.100;-1.670;2022-12-18T08:53:34;9.10;;;4.40;;
75236;SDS011;63826;48.100;-1.670;2022-12-18T08:56:01;9.05;;;4.97;;
75236;SDS011;63826;48.100;-1.670;2022-12-18T08:58:27;8.50;;;4.50;;
75236;SDS011;63826;48.100;-1.670;2022-12-18T09:00:53;9.00;;;4.80;;
75236;SDS011;63826;48.100;-1.670;2022-12-18T09:03:19;9.30;;;4.37;;
75236;SDS011;63826;48.100;-1.670;2022-12-18T09:05:47;9.18;;;4.70;;
75236;SDS011;63826;48.100;-1.670;2022-12-18T09:08:13;9.05;;;4.50;;
75236;SDS011;63826;48.100;-1.670;2022-12-18T09:10:46;8.80;;;4.55;;
75236;SDS011;63826;48.100;-1.670;2022-12-18T09:13:12;8.48;;;4.50;;
75236;SDS011;63826;48.100;-1.670;2022-12-18T09:15:43;8.97;;;4.47;;
75236;SDS011;63826;48.100;-1.670;2022-12-18T09:18:10;8.43;;;4.50;;
75236;SDS011;63826;48.100;-1.670;2022-12-18T09:20:36;8.75;;;4.25;;
75236;SDS011;63826;48.100;-1.670;2022-12-18T09:23:02;9.65;;;4.80;;
75236;SDS011;63826;48.100;-1.670;2022-12-18T09:25:28;8.73;;;4.38;;
75236;SDS011;63826;48.100;-1.670;2022-12-18T09:28:11;9.60;;;4.73;;
75236;SDS011;63826;48.100;-1.670;2022-12-18T09:30:38;8.82;;;4.43;;
75236;SDS011;63826;48.100;-1.670;2022-12-18T09:33:04;8.82;;;4.63;;
75236;SDS011;63826;48.100;-1.670;2022-12-18T09:35:30;9.75;;;4.60;;
75236;SDS011;63826;48.100;-1.670;2022-12-18T09:37:57;9.18;;;4.60;;
75236;SDS011;63826;48.100;-1.670;2022-12-18T09:40:24;9.47;;;5.10;;
75236;SDS011;63826;48.100;-1.670;2022-12-18T09:42:57;9.48;;;4.68;;
75236;SDS011;63826;48.100;-1.670;2022-12-18T09:45:25;8.73;;;4.55;;
75236;SDS011;63826;48.100;-1.670;2022-12-18T09:47:51;9.07;;;4.45;;
75236;SDS011;63826;48.100;-1.670;2022-12-18T09:50:26;10.15;;;5.03;;
75236;SDS011;63826;48.100;-1.670;2022-12-18T09:52:54;10.13;;;4.93;;
75236;SDS011;63826;48.100;-1.670;2022-12-18T09:55:40;9.18;;;4.40;;
75236;SDS011;63826;48.100;-1.670;2022-12-18T09:59:09;8.63;;;4.72;;
75236;SDS011;63826;48.100;-1.670;2022-12-18T10:01:06;10.15;;;4.80;;
75236;SDS011;63826;48.100;-1.670;2022-12-18T10:03:35;8.50;;;4.82;;
75236;SDS011;63826;48.100;-1.670;2022-12-18T10:06:10;9.30;;;4.53;;
75236;SDS011;63826;48.100;-1.670;2022-12-18T10:13:57;9.35;;;4.85;;
75236;SDS011;63826;48.100;-1.670;2022-12-18T10:21:39;9.93;;;4.60;;
75236;SDS011;63826;48.100;-1.670;2022-12-18T10:24:12;9.02;;;4.97;;
75236;SDS011;63826;48.100;-1.670;2022-12-18T10:26:40;9.02;;;4.75;;
75236;SDS011;63826;48.100;-1.670;2022-12-18T10:29:13;10.05;;;5.38;;
75236;SDS011;63826;48.100;-1.670;2022-12-18T10:31:40;8.97;;;5.10;;
75236;SDS011;63826;48.100;-1.670;2022-12-18T10:34:12;11.07;;;5.40;;
75236;SDS011;63826;48.100;-1.670;2022-12-18T10:36:38;10.20;;;5.47;;
75236;SDS011;63826;48.100;-1.670;2022-12-18T10:39:14;9.60;;;5.13;;
75236;SDS011;63826;48.100;-1.670;2022-12-18T10:41:40;10.43;;;5.35;;
75236;SDS011;63826;48.100;-1.670;2022-12-18T10:44:19;11.00;;;5.30;;
75236;SDS011;63826;48.100;-1.670;2022-12-18T10:46:46;10.15;;;5.30;;
75236;SDS011;63826;48.100;-1.670;2022-12-18T10:49:24;9.40;;;5.15;;
75236;SDS011;63826;48.100;-1.670;2022-12-18T10:51:51;10.32;;;5.40;;
75236;SDS011;63826;48.100;-1.670;2022-12-18T10:54:18;10.07;;;5.70;;
75236;SDS011;63826;48.100;-1.670;2022-12-18T10:56:45;9.73;;;5.30;;
75236;SDS011;63826;48.100;-1.670;2022-12-18T10:59:12;9.82;;;5.22;;
75236;SDS011;63826;48.100;-1.670;2022-12-18T11:04:34;9.90;;;5.45;;
75236;SDS011;63826;48.100;-1.670;2022-12-18T11:07:07;9.93;;;5.00;;
75236;SDS011;63826;48.100;-1.670;2022-12-18T11:09:36;11.17;;;5.67;;
75236;SDS011;63826;48.100;-1.670;2022-12-18T11:12:14;10.10;;;5.30;;
75236;SDS011;63826;48.100;-1.670;2022-12-18T11:17:16;10.73;;;6.13;;
75236;SDS011;63826;48.100;-1.670;2022-12-18T11:19:43;10.50;;;5.53;;
75236;SDS011;63826;48.100;-1.670;2022-12-18T11:22:25;9.83;;;5.57;;
75236;SDS011;63826;48.100;-1.670;2022-12-18T11:25:03;11.13;;;5.80;;
75236;SDS011;63826;48.100;-1.670;2022-12-18T11:27:30;10.38;;;6.07;;
75236;SDS011;63826;48.100;-1.670;2022-12-18T11:30:10;12.02;;;6.35;;
75236;SDS011;63826;48.100;-1.670;2022-12-18T11:32:37;10.45;;;5.55;;
75236;SDS011;63826;48.100;-1.670;2022-12-18T11:35:15;10.00;;;5.57;;
75236;SDS011;63826;48.100;-1.670;2022-12-18T11:37:44;10.35;;;5.75;;
75236;SDS011;63826;48.100;-1.670;2022-12-18T11:40:16;10.82;;;6.03;;
75236;SDS011;63826;48.100;-1.670;2022-12-18T11:43:01;11.68;;;5.82;;
75236;SDS011;63826;48.100;-1.670;2022-12-18T11:45:29;11.48;;;6.10;;
75236;SDS011;63826;48.100;-1.670;2022-12-18T11:48:10;10.73;;;6.07;;
75236;SDS011;63826;48.100;-1.670;2022-12-18T11:53:10;11.02;;;6.03;;
75236;SDS011;63826;48.100;-1.670;2022-12-18T11:55:52;10.48;;;5.38;;
75236;SDS011;63826;48.100;-1.670;2022-12-18T12:00:52;11.50;;;5.87;;
75236;SDS011;63826;48.100;-1.670;2022-12-18T12:06:12;9.60;;;5.40;;
75236;SDS011;63826;48.100;-1.670;2022-12-18T12:17:08;9.68;;;5.47;;
75236;SDS011;63826;48.100;-1.670;2022-12-18T12:22:25;9.85;;;5.38;;
75236;SDS011;63826;48.100;-1.670;2022-12-18T12:24:51;10.18;;;5.47;;
75236;SDS011;63826;48.100;-1.670;2022-12-18T12:29:52;9.85;;;5.70;;
75236;SDS011;63826;48.100;-1.670;2022-12-18T12:39:56;10.53;;;5.80;;
75236;SDS011;63826;48.100;-1.670;2022-12-18T12:45:31;11.40;;;6.03;;
75236;SDS011;63826;48.100;-1.670;2022-12-18T12:47:58;12.07;;;5.68;;
75236;SDS011;63826;48.100;-1.670;2022-12-18T12:50:26;10.38;;;5.80;;
75236;SDS011;63826;48.100;-1.670;2022-12-18T12:52:53;10.95;;;5.93;;
75236;SDS011;63826;48.100;-1.670;2022-12-18T12:55:21;10.63;;;5.88;;
75236;SDS011;63826;48.100;-1.670;2022-12-18T13:00:19;10.20;;;6.03;;
75236;SDS011;63826;48.100;-1.670;2022-12-18T13:07:53;9.93;;;5.88;;
75236;SDS011;63826;48.100;-1.670;2022-12-18T13:10:23;10.70;;;6.40;;
75236;SDS011;63826;48.100;-1.670;2022-12-18T13:12:57;11.45;;;5.88;;
75236;SDS011;63826;48.100;-1.670;2022-12-18T13:15:25;10.68;;;6.07;;
75236;SDS011;63826;48.100;-1.670;2022-12-18T13:20:43;9.95;;;6.20;;
75236;SDS011;63826;48.100;-1.670;2022-12-18T13:23:23;10.13;;;6.18;;
75236;SDS011;63826;48.100;-1.670;2022-12-18T13:31:11;10.23;;;5.50;;
75236;SDS011;63826;48.100;-1.670;2022-12-18T13:33:38;10.32;;;6.15;;
75236;SDS011;63826;48.100;-1.670;2022-12-18T13:41:34;11.23;;;6.32;;
75236;SDS011;63826;48.100;-1.670;2022-12-18T13:44:13;10.50;;;6.22;;
75236;SDS011;63826;48.100;-1.670;2022-12-18T13:46:48;11.63;;;7.13;;
75236;SDS011;63826;48.100;-1.670;2022-12-18T13:51:59;11.60;;;6.72;;
75236;SDS011;63826;48.100;-1.670;2022-12-18T13:56:57;10.38;;;6.03;;
75236;SDS011;63826;48.100;-1.670;2022-12-18T13:59:33;11.65;;;6.30;;
75236;SDS011;63826;48.100;-1.670;2022-12-18T14:02:00;12.15;;;6.30;;
75236;SDS011;63826;48.100;-1.670;2022-12-18T14:04:28;10.40;;;6.53;;
75236;SDS011;63826;48.100;-1.670;2022-12-18T14:06:58;10.27;;;6.45;;
75236;SDS011;63826;48.100;-1.670;2022-12-18T14:09:28;11.70;;;6.72;;
75236;SDS011;63826;48.100;-1.670;2022-12-18T14:11:55;11.27;;;6.72;;
75236;SDS011;63826;48.100;-1.670;2022-12-18T14:14:43;10.98;;;6.78;;
75236;SDS011;63826;48.100;-1.670;2022-12-18T14:17:10;11.77;;;7.15;;
75236;SDS011;63826;48.100;-1.670;2022-12-18T14:19:36;12.48;;;7.43;;
75236;SDS011;63826;48.100;-1.670;2022-12-18T14:22:02;10.82;;;6.78;;
75236;SDS011;63826;48.100;-1.670;2022-12-18T14:24:28;11.57;;;6.90;;
75236;SDS011;63826;48.100;-1.670;2022-12-18T14:26:57;12.65;;;7.35;;
75236;SDS011;63826;48.100;-1.670;2022-12-18T14:29:38;11.50;;;7.35;;
75236;SDS011;63826;48.100;-1.670;2022-12-18T14:32:13;11.98;;;7.50;;
75236;SDS011;63826;48.100;-1.670;2022-12-18T14:34:51;11.90;;;7.20;;
75236;SDS011;63826;48.100;-1.670;2022-12-18T14:37:23;13.63;;;8.13;;
75236;SDS011;63826;48.100;-1.670;2022-12-18T14:40:11;11.88;;;6.88;;
75236;SDS011;63826;48.100;-1.670;2022-12-18T14:42:38;12.63;;;7.90;;
75236;SDS011;63826;48.100;-1.670;2022-12-18T14:47:48;12.80;;;8.35;;
75236;SDS011;63826;48.100;-1.670;2022-12-18T14:50:14;13.00;;;7.80;;
75236;SDS011;63826;48.100;-1.670;2022-12-18T14:52:40;12.02;;;7.15;;
75236;SDS011;63826;48.100;-1.670;2022-12-18T14:55:14;12.87;;;7.27;;
75236;SDS011;63826;48.100;-1.670;2022-12-18T14:57:40;12.63;;;7.60;;
75236;SDS011;63826;48.100;-1.670;2022-12-18T15:00:26;12.65;;;7.72;;
75236;SDS011;63826;48.100;-1.670;2022-12-18T15:02:53;13.27;;;7.93;;
75236;SDS011;63826;48.100;-1.670;2022-12-18T15:05:21;12.40;;;7.80;;
75236;SDS011;63826;48.100;-1.670;2022-12-18T15:07:51;13.43;;;7.70;;
75236;SDS011;63826;48.100;-1.670;2022-12-18T15:18:01;12.98;;;7.57;;
75236;SDS011;63826;48.100;-1.670;2022-12-18T15:20:29;12.40;;;7.00;;
75236;SDS011;63826;48.100;-1.670;2022-12-18T15:22:57;12.15;;;6.85;;
75236;SDS011;63826;48.100;-1.670;2022-12-18T15:27:52;12.80;;;7.47;;
75236;SDS011;63826;48.100;-1.670;2022-12-18T15:30:19;12.57;;;7.35;;
75236;SDS011;63826;48.100;-1.670;2022-12-18T15:32:46;12.40;;;7.33;;
75236;SDS011;63826;48.100;-1.670;2022-12-18T15:37:41;12.25;;;7.38;;
75236;SDS011;63826;48.100;-1.670;2022-12-18T15:40:18;13.70;;;7.75;;
75236;SDS011;63826;48.100;-1.670;2022-12-18T15:42:44;13.23;;;7.50;;
75236;SDS011;63826;48.100;-1.670;2022-12-18T15:45:29;11.60;;;7.23;;
75236;SDS011;63826;48.100;-1.670;2022-12-18T15:47:55;13.32;;;7.43;;
75236;SDS011;63826;48.100;-1.670;2022-12-18T15:50:21;12.93;;;7.50;;
75236;SDS011;63826;48.100;-1.670;2022-12-18T15:52:48;12.98;;;7.45;;
75236;SDS011;63826;48.100;-1.670;2022-12-18T15:55:22;12.88;;;7.50;;
75236;SDS011;63826;48.100;-1.670;2022-12-18T15:58:08;11.97;;;7.00;;
75236;SDS011;63826;48.100;-1.670;2022-12-18T16:00:34;12.63;;;7.60;;
75236;SDS011;63826;48.100;-1.670;2022-12-18T16:03:01;12.00;;;6.70;;
75236;SDS011;63826;48.100;-1.670;2022-12-18T16:05:27;11.20;;;6.68;;
75236;SDS011;63826;48.100;-1.670;2022-12-18T16:07:53;11.80;;;6.93;;
75236;SDS011;63826;48.100;-1.670;2022-12-18T16:10:19;11.00;;;6.33;;
75236;SDS011;63826;48.100;-1.670;2022-12-18T16:12:45;11.13;;;6.57;;
75236;SDS011;63826;48.100;-1.670;2022-12-18T16:15:12;10.80;;;6.15;;
75236;SDS011;63826;48.100;-1.670;2022-12-18T16:17:40;11.00;;;6.32;;
75236;SDS011;63826;48.100;-1.670;2022-12-18T16:20:17;12.00;;;6.70;;
75236;SDS011;63826;48.100;-1.670;2022-12-18T16:22:44;10.90;;;6.50;;
75236;SDS011;63826;48.100;-1.670;2022-12-18T16:25:18;10.43;;;6.00;;
75236;SDS011;63826;48.100;-1.670;2022-12-18T16:27:45;9.85;;;6.10;;
75236;SDS011;63826;48.100;-1.670;2022-12-18T16:30:15;11.23;;;6.35;;
75236;SDS011;63826;48.100;-1.670;2022-12-18T16:32:41;11.52;;;6.28;;
75236;SDS011;63826;48.100;-1.670;2022-12-18T16:35:08;12.70;;;6.90;;
75236;SDS011;63826;48.100;-1.670;2022-12-18T16:37:34;11.02;;;5.95;;